Flight Track Log - Related Links

Times and Time Zones

All times are in EDT time to prevent confusion due to time zone crossing. See the N733EN flight status page for this flight to view local times or setup timezone preferences in your user account.

Time Position Orientation Groundspeed Altitude Reporting Facility
EDT Latitude Longitude Course Direction KTS MPH feet Rate Location/Type
Mon 05:04:26 PM 34.0167 -84.7000 320° Northwest 95 109 3,000  Level Atlanta TRACON
Mon 05:05:20 PM 34.0333 -84.7167 320° Northwest 101 116 3,500 526 Climbing Atlanta TRACON
Mon 05:06:20 PM 34.0500 -84.6833 59° Northeast 91 105 4,000 450 Climbing Atlanta TRACON
Mon 05:07:20 PM 34.0500 -84.6667 90° East 85 98 4,400 429 Climbing Atlanta TRACON
Mon 05:08:26 PM 34.0500 -84.6333 90° East 80 92 4,900 450 Climbing Atlanta TRACON
Mon 05:09:20 PM 34.0500 -84.6167 90° East 83 96 5,300 470 Climbing Atlanta TRACON
Mon 05:10:21 PM 34.0667 -84.5833 59° Northeast 91 105 5,800 476 Climbing Atlanta TRACON
Mon 05:11:26 PM 34.0833 -84.5667 40° Northeast 96 110 6,300 432 Climbing Atlanta TRACON
Mon 05:12:26 PM 34.1000 -84.5333 59° Northeast 102 117 6,700 450 Climbing Atlanta TRACON
Mon 05:13:26 PM 34.1167 -84.5167 40° Northeast 96 110 7,200 397 Climbing Atlanta TRACON
Mon 05:14:27 PM 34.1333 -84.4833 59° Northeast 92 106 7,500 316 Climbing Atlanta TRACON
Mon 05:15:20 PM 34.1483 -84.4681 40° Northeast 83 96 7,800 372 Climbing Atlanta Center
Mon 05:16:20 PM 34.1631 -84.4481 48° Northeast 88 101 8,200 350 Climbing Atlanta Center
Mon 05:17:20 PM 34.1778 -84.4256 52° Northeast 88 101 8,500 350 Climbing Atlanta Center
Mon 05:18:20 PM 34.1967 -84.4006 48° Northeast 97 112 8,900 300 Climbing Atlanta Center
Mon 05:19:20 PM 34.2175 -84.3728 48° Northeast 112 129 9,100 50 Climbing Atlanta Center
Mon 05:20:20 PM 34.2406 -84.3403 49° Northeast 150 173 9,000 -50 Descending Atlanta Center
Mon 05:21:20 PM 34.2678 -84.3053 47° Northeast 145 167 9,000 -50 Level Atlanta Center
Mon 05:22:20 PM 34.2928 -84.2700 49° Northeast 139 160 8,900 -50 Descending Atlanta Center
Mon 05:23:20 PM 34.3181 -84.2375 47° Northeast 134 154 8,900  Level Atlanta Center
Mon 05:24:20 PM 34.3431 -84.2047 47° Northeast 134 154 8,900  Level Atlanta Center
Mon 05:25:20 PM 34.3703 -84.1697 47° Northeast 134 154 8,900  Level Atlanta Center
Mon 05:26:20 PM 34.3953 -84.1369 47° Northeast 134 154 8,900  Level Atlanta Center
Mon 05:27:20 PM 34.4183 -84.1042 50° Northeast 134 154 8,900  Level Atlanta Center
Mon 05:28:20 PM 34.4433 -84.0717 47° Northeast 128 147 8,900 50 Level Atlanta Center
Mon 05:29:20 PM 34.4706 -84.0389 45° Northeast 133 153 9,000 100 Climbing Atlanta Center
Mon 05:30:20 PM 34.4975 -84.0061 45° Northeast 133 153 9,100 -100 Climbing Atlanta Center
Mon 05:31:20 PM 34.5183 -83.9758 50° Northeast 133 153 8,800 -100 Descending Atlanta Center
Mon 05:32:20 PM 34.5414 -83.9378 54° Northeast 133 153 8,900 50 Climbing Atlanta Center
Mon 05:33:20 PM 34.5622 -83.9025 54° Northeast 133 153 8,900  Level Atlanta Center
Mon 05:34:20 PM 34.5850 -83.8672 52° Northeast 128 147 8,900  Level Atlanta Center
Mon 05:35:20 PM 34.6081 -83.8319 52° Northeast 134 154 8,900  Level Atlanta Center
Mon 05:36:20 PM 34.6289 -83.7964 55° Northeast 128 147 8,900  Level Atlanta Center
Mon 05:37:20 PM 34.6558 -83.7661 43° Northeast 128 147 8,900  Level Atlanta Center
Mon 05:38:20 PM 34.6808 -83.7256 53° Northeast 128 147 8,900  Level Atlanta Center
Mon 05:39:20 PM 34.7036 -83.6925 50° Northeast 129 148 8,900 -50 Level Atlanta Center
Mon 05:40:20 PM 34.7267 -83.6572 52° Northeast 129 148 8,800  Descending Atlanta Center
Mon 05:41:20 PM 34.7514 -83.6242 48° Northeast 135 155 8,900  Climbing Atlanta Center
Mon 05:42:20 PM 34.7786 -83.5911 45° Northeast 128 147 8,800  Descending Atlanta Center
Mon 05:43:20 PM 34.8014 -83.5608 48° Northeast 128 147 8,900 50 Climbing Atlanta Center
Mon 05:44:20 PM 34.8200 -83.5328 51° Northeast 128 147 8,900  Level Atlanta Center
Mon 05:45:20 PM 34.8469 -83.4947 49° Northeast 133 153 8,900 -50 Level Atlanta Center
Mon 05:46:20 PM 34.8697 -83.4617 50° Northeast 133 153 8,800  Descending Atlanta Center
Mon 05:47:20 PM 34.8925 -83.4283 50° Northeast 126 145 8,900 100 Climbing Atlanta Center
Mon 05:48:20 PM 34.9153 -83.3953 50° Northeast 131 151 9,000  Climbing Atlanta Center
Mon 05:49:20 PM 34.9403 -83.3647 45° Northeast 131 151 8,900 -100 Descending Atlanta Center
Mon 05:50:20 PM 34.9692 -83.3292 45° Northeast 131 151 8,800  Descending Atlanta Center
Mon 05:51:20 PM 34.9900 -83.3036 45° Northeast 125 144 8,900 50 Climbing Atlanta Center
Mon 05:52:20 PM 35.0147 -83.2703 48° Northeast 125 144 8,900  Level Atlanta Center
Mon 05:53:20 PM 35.0417 -83.2347 47° Northeast 125 144 8,900  Level Atlanta Center
Mon 05:54:20 PM 35.0667 -83.2014 47° Northeast 125 144 8,900 50 Level Atlanta Center
Mon 05:55:20 PM 35.0892 -83.1731 46° Northeast 120 138 9,000  Climbing Atlanta Center
Mon 05:56:20 PM 35.1119 -83.1400 50° Northeast 120 138 8,900 50 Descending Atlanta Center
Mon 05:57:20 PM 35.1325 -83.1092 51° Northeast 120 138 9,100  Climbing Atlanta Center
Mon 05:58:20 PM 35.1575 -83.0786 45° Northeast 120 138 8,900 -100 Descending Atlanta Center
Mon 05:59:20 PM 35.1842 -83.0400 50° Northeast 127 146 8,900 -50 Level Atlanta Center
Mon 06:00:20 PM 35.2069 -83.0119 45° Northeast 121 139 8,800  Descending Atlanta Center
Mon 06:01:20 PM 35.2297 -82.9758 52° Northeast 121 139 8,900 -50 Climbing Atlanta Center
Mon 06:02:20 PM 35.2503 -82.9503 45° Northeast 120 138 8,700 -50 Descending Atlanta Center
Mon 06:03:20 PM 35.2731 -82.9269 40° Northeast 115 132 8,800 50 Climbing Atlanta Center
Mon 06:04:20 PM 35.2956 -82.8886 54° Northeast 120 138 8,800  Level Atlanta Center
Mon 06:05:20 PM 35.3203 -82.8550 48° Northeast 120 138 8,800  Level Atlanta Center
Mon 06:06:20 PM 35.3450 -82.8242 45° Northeast 120 138 8,800  Level Atlanta Center
Mon 06:08:00 PM 35.3811 -82.7700 51° Northeast  Level FlightAware Approximate
Mon 06:13:56 PM 35.5344 -82.5842 51° Northeast 124 143 8,800  Level Atlanta Center
Mon 06:14:56 PM 35.5569 -82.5506 51° Northeast 123 142 8,800  Level Atlanta Center
Mon 06:15:00 PM 35.5333 -82.5422 51° Northeast  Level FlightAware Approximate
Mon 06:15:56 PM 35.5836 -82.5194 43° Northeast 131 151 8,800  Level Atlanta Center
Mon 06:16:00 PM 35.5550 -82.5096 51° Northeast  Level FlightAware Approximate
Mon 06:16:56 PM 35.6042 -82.4933 46° Northeast 126 145 8,900  Level Atlanta Center
Mon 06:17:00 PM 35.5767 -82.4771 51° Northeast  Level FlightAware Approximate
Mon 06:17:56 PM 35.6289 -82.4597 48° Northeast 126 145 8,900  Level Atlanta Center
Mon 06:18:00 PM 35.5984 -82.4445 51° Northeast  Level FlightAware Approximate
Mon 06:18:56 PM 35.6533 -82.4261 48° Northeast 119 137 8,800  Level Atlanta Center
Mon 06:19:00 PM 35.6200 -82.4119 51° Northeast  Level FlightAware Approximate
Mon 06:19:56 PM 35.6781 -82.3950 46° Northeast 119 137 8,900  Level Atlanta Center
Mon 06:20:56 PM 35.7025 -82.3586 50° Northeast 126 145 8,900  Level Atlanta Center
Mon 06:21:56 PM 35.7269 -82.3197 52° Northeast 126 145 8,900  Level Atlanta Center
Mon 06:22:56 PM 35.7494 -82.2833 53° Northeast 131 151 8,900 -50 Level Atlanta Center
Mon 06:23:56 PM 35.7742 -82.2497 48° Northeast 131 151 8,800 -50 Descending Atlanta Center
Mon 06:24:56 PM 35.7986 -82.2133 50° Northeast 136 157 8,800 50 Level Atlanta Center
Mon 06:25:56 PM 35.8231 -82.1794 48° Northeast 131 151 8,900 50 Climbing Atlanta Center
Mon 06:26:56 PM 35.8456 -82.1456 51° Northeast 131 151 8,900  Level Atlanta Center
Mon 06:27:56 PM 35.8700 -82.1142 46° Northeast 131 151 8,900 -50 Level Atlanta Center
Mon 06:28:56 PM 35.8944 -82.0778 50° Northeast 131 151 8,800  Descending Atlanta Center
Mon 06:29:56 PM 35.9192 -82.0464 46° Northeast 131 151 8,900 50 Climbing Atlanta Center
Mon 06:30:56 PM 35.9436 -82.0150 46° Northeast 131 151 8,900 -50 Level Atlanta Center
Mon 06:31:56 PM 35.9658 -81.9836 49° Northeast 131 151 8,800 -50 Descending Atlanta Center
Mon 06:32:56 PM 35.9906 -81.9497 48° Northeast 131 151 8,800  Level Atlanta Center
Mon 06:33:56 PM 36.0147 -81.9131 51° Northeast 131 151 8,800 50 Level Atlanta Center
Mon 06:34:56 PM 36.0372 -81.8792 51° Northeast 131 151 8,900 50 Climbing Atlanta Center
Mon 06:35:56 PM 36.0617 -81.8453 48° Northeast 131 151 8,900  Level Atlanta Center
Mon 06:36:56 PM 36.0881 -81.8058 50° Northeast 131 151 8,900  Level Atlanta Center
Mon 06:37:56 PM 36.1125 -81.7717 48° Northeast 131 151 8,900 -50 Level Atlanta Center
Mon 06:38:56 PM 36.1347 -81.7378 51° Northeast 131 151 8,800  Descending Atlanta Center
Mon 06:39:56 PM 36.1569 -81.7064 49° Northeast 131 151 8,900 100 Climbing Atlanta Center
Mon 06:40:56 PM 36.1794 -81.6722 51° Northeast 131 151 9,000 -50 Climbing Atlanta Center
Mon 06:41:56 PM 36.2036 -81.6356 51° Northeast 131 151 8,800 -100 Descending Atlanta Center
Mon 06:42:56 PM 36.2281 -81.6014 48° Northeast 131 151 8,800  Level Atlanta Center
Mon 06:43:56 PM 36.2503 -81.5672 51° Northeast 131 151 8,800 50 Level Atlanta Center
Mon 06:44:56 PM 36.2728 -81.5381 46° Northeast 131 151 8,900 50 Climbing Atlanta Center
Mon 06:45:56 PM 36.2947 -81.5014 53° Northeast 131 151 8,900  Level Atlanta Center
Mon 06:46:56 PM 36.3172 -81.4697 49° Northeast 131 151 8,900  Level Atlanta Center
Mon 06:47:56 PM 36.3392 -81.4331 53° Northeast 131 151 8,900 -50 Level Atlanta Center
Mon 06:48:56 PM 36.3636 -81.3986 49° Northeast 136 157 8,800 -50 Descending Atlanta Center
Mon 06:49:56 PM 36.3878 -81.3617 51° Northeast 131 151 8,800 50 Level Atlanta Center
Mon 06:50:56 PM 36.4142 -81.3247 48° Northeast 131 151 8,900 50 Climbing Atlanta Center
Mon 06:51:56 PM 36.4383 -81.2903 49° Northeast 131 151 8,900  Level Atlanta Center
Mon 06:52:56 PM 36.4606 -81.2561 51° Northeast 131 151 8,900  Level Atlanta Center
Mon 06:53:56 PM 36.4847 -81.2217 49° Northeast 131 151 8,900 -50 Level Atlanta Center
Mon 06:54:56 PM 36.5069 -81.1872 51° Northeast 131 151 8,800  Descending Atlanta Center
Mon 06:55:56 PM 36.5311 -81.1528 49° Northeast 131 151 8,900 50 Climbing Atlanta Center
Mon 06:56:56 PM 36.5553 -81.1158 51° Northeast 136 157 8,900 -50 Level Atlanta Center
Mon 06:57:56 PM 36.5775 -81.0814 51° Northeast 131 151 8,800  Descending Atlanta Center
Mon 06:58:56 PM 36.5997 -81.0522 46° Northeast 131 151 8,900 50 Climbing Atlanta Center
Mon 06:59:56 PM 36.6239 -81.0175 49° Northeast 131 151 8,900  Level Atlanta Center
Mon 07:00:56 PM 36.6481 -80.9831 49° Northeast 131 151 8,900  Level Atlanta Center
Mon 07:01:56 PM 36.6722 -80.9483 49° Northeast 131 151 8,900  Level Atlanta Center
Mon 07:02:56 PM 36.6942 -80.9114 53° Northeast 136 157 8,900 -50 Level Atlanta Center
Mon 07:03:56 PM 36.7181 -80.8742 51° Northeast 130 150 8,800 -50 Descending Atlanta Center
Mon 07:04:56 PM 36.7422 -80.8369 51° Northeast 130 150 8,800  Level Atlanta Center
Mon 07:05:56 PM 36.7644 -80.8050 49° Northeast 125 144 8,800 50 Level Atlanta Center
Mon 07:06:56 PM 36.7886 -80.7728 47° Northeast 125 144 8,900 50 Climbing Atlanta Center
Mon 07:07:56 PM 36.8125 -80.7381 49° Northeast 125 144 8,900  Level Atlanta Center
Mon 07:08:56 PM 36.8347 -80.7036 51° Northeast 125 144 8,900 -50 Level Atlanta Center
Mon 07:09:56 PM 36.8586 -80.6714 47° Northeast 125 144 8,800  Descending Atlanta Center
Mon 07:10:56 PM 36.8786 -80.6367 54° Northeast 125 144 8,900  Climbing Atlanta Center
Mon 07:11:56 PM 36.9047 -80.6019 47° Northeast 125 144 8,800 -50 Descending Atlanta Center
Mon 07:12:56 PM 36.9286 -80.5619 53° Northeast 125 144 8,800 -250 Level Atlanta Center
Mon 07:13:56 PM 36.9547 -80.5219 51° Northeast 130 150 8,300 -500 Descending Atlanta Center
Mon 07:14:56 PM 36.9808 -80.4869 47° Northeast 137 158 7,800 -500 Descending Atlanta Center
Mon 07:15:56 PM 37.0047 -80.4469 53° Northeast 137 158 7,300 -500 Descending Atlanta Center
Mon 07:17:00 PM 37.0294 -80.4143 50° Northeast  Level FlightAware Approximate
Mon 07:24:00 PM 37.1773 -80.1855 48° Northeast  Level FlightAware Approximate
Mon 07:25:00 PM 37.2000 -80.1543 48° Northeast  Level FlightAware Approximate
Mon 07:26:00 PM 37.2227 -80.1231 48° Northeast  Level FlightAware Approximate
Mon 07:27:00 PM 37.2454 -80.0919 48° Northeast  Level FlightAware Approximate
Mon 07:28:00 PM 37.2681 -80.0606 48° Northeast  Level FlightAware Approximate
Mon 07:29:00 PM 37.2908 -80.0294 48° Northeast  Level FlightAware Approximate
Mon 07:30:00 PM 37.3077 -79.9935 67° East  Level FlightAware Approximate
Mon 07:31:00 PM 37.3167 -79.9667 67° East  Level FlightAware Approximate

Login

Don't have an account? Register now (free) for customized features, flight alerts, and more!